Time;durP1;ratioP1;P1;durP2;ratioP2;P2;SDS_P1;SDS_P2;PMS_P1;PMS_P2;Temp;Humidity;BMP_temperature;BMP_pressure;BME280_temperature;BME280_humidity;BME280_pressure;Samples;Min_cycle;Max_cycle;Signal;HPM_P1;HPM_P2
2021/09/07 00:00:17;;;;;;;6.10;1.65;;;17.30;78.10;;;;;;5013754;28;20493;-81
2021/09/07 00:02:44;;;;;;;5.30;2.63;;;17.30;78.10;;;;;;5015942;28;20041;-81
2021/09/07 00:05:14;;;;;;;3.63;1.90;;;17.40;78.10;;;;;;5046579;28;20052;-81
2021/09/07 00:07:41;;;;;;;5.15;2.65;;;17.40;78.10;;;;;;5026436;28;20052;-81
2021/09/07 00:10:10;;;;;;;4.85;2.58;;;17.40;78.10;;;;;;5041727;28;20056;-81
2021/09/07 00:12:40;;;;;;;5.95;2.33;;;17.50;78.10;;;;;;5043436;28;20124;-81
2021/09/07 00:15:10;;;;;;;3.63;1.73;;;17.40;77.90;;;;;;5050353;28;20041;-81
2021/09/07 00:17:38;;;;;;;4.57;2.60;;;17.40;78.00;;;;;;5018911;28;20489;-82
2021/09/07 00:20:07;;;;;;;5.15;2.30;;;17.50;78.60;;;;;;5021408;28;20075;-80
2021/09/07 00:22:35;;;;;;;5.13;2.85;;;17.50;78.00;;;;;;5039117;28;20092;-81
2021/09/07 00:25:05;;;;;;;4.38;2.08;;;17.50;77.90;;;;;;5035268;28;20057;-81
2021/09/07 00:27:32;;;;;;;4.20;2.03;;;17.60;77.90;;;;;;5050994;28;20045;-81
2021/09/07 00:29:59;;;;;;;5.32;2.45;;;17.60;77.90;;;;;;5037773;28;20045;-81
2021/09/07 00:32:26;;;;;;;5.18;2.30;;;17.60;77.90;;;;;;5033484;28;20555;-81
2021/09/07 00:34:53;;;;;;;4.43;2.15;;;17.70;77.90;;;;;;5020059;28;20037;-81
2021/09/07 00:37:20;;;;;;;3.92;1.85;;;17.70;77.90;;;;;;5034478;28;20052;-80
2021/09/07 00:39:47;;;;;;;4.05;1.98;;;17.70;77.90;;;;;;5049002;28;20033;-80
2021/09/07 00:42:15;;;;;;;3.85;1.83;;;17.70;77.90;;;;;;5049152;28;20116;-81
2021/09/07 00:44:42;;;;;;;4.47;2.13;;;17.70;77.90;;;;;;5069610;28;20440;-80
2021/09/07 00:47:09;;;;;;;4.68;2.22;;;17.70;77.90;;;;;;5036576;28;20481;-81
2021/09/07 00:49:37;;;;;;;5.13;2.20;;;17.70;78.00;;;;;;5048370;28;20090;-80
2021/09/07 00:52:05;;;;;;;3.70;1.83;;;17.70;78.00;;;;;;5051044;28;20045;-81
2021/09/07 00:54:36;;;;;;;4.82;2.40;;;17.70;78.00;;;;;;5048838;28;20040;-80
2021/09/07 00:57:06;;;;;;;3.55;1.60;;;17.70;78.00;;;;;;5053044;28;20679;-80
2021/09/07 00:59:33;;;;;;;4.18;2.08;;;17.80;78.10;;;;;;5053522;28;20037;-80
2021/09/07 01:02:02;;;;;;;3.53;1.70;;;17.80;78.10;;;;;;5036713;28;20202;-80
2021/09/07 01:04:32;;;;;;;3.83;1.85;;;17.80;78.10;;;;;;5054578;28;20057;-80
2021/09/07 01:07:04;;;;;;;4.97;2.15;;;17.80;78.10;;;;;;5037019;28;20037;-80
2021/09/07 01:09:31;;;;;;;3.58;2.45;;;17.80;78.10;;;;;;5049932;28;20048;-80
2021/09/07 01:11:59;;;;;;;2.90;1.45;;;17.80;78.10;;;;;;5036750;28;20103;-80
2021/09/07 01:14:33;;;;;;;4.32;1.75;;;17.80;78.10;;;;;;5034821;28;20065;-80
2021/09/07 01:17:01;;;;;;;3.55;1.83;;;17.90;78.10;;;;;;5052653;28;20793;-80
2021/09/07 01:19:30;;;;;;;3.53;1.70;;;17.90;78.20;;;;;;5036410;28;20091;-80
2021/09/07 01:21:59;;;;;;;3.92;1.95;;;17.90;78.20;;;;;;5035722;28;20041;-80
2021/09/07 01:24:27;;;;;;;4.05;1.88;;;17.90;78.20;;;;;;5035171;28;20048;-80
2021/09/07 01:26:55;;;;;;;3.80;1.90;;;17.90;78.20;;;;;;5034463;28;20075;-80
2021/09/07 01:29:22;;;;;;;5.40;2.50;;;17.80;78.20;;;;;;5031462;28;20073;-80
2021/09/07 01:31:57;;;;;;;3.53;1.50;;;17.90;78.30;;;;;;5049951;28;20049;-80
2021/09/07 01:34:24;;;;;;;3.17;1.20;;;17.90;78.30;;;;;;5035962;28;20069;-80
2021/09/07 01:36:51;;;;;;;3.33;1.23;;;17.80;78.20;;;;;;5017679;28;20037;-80
2021/09/07 01:39:19;;;;;;;3.95;1.75;;;17.90;78.30;;;;;;5035151;28;20037;-80
2021/09/07 01:41:46;;;;;;;3.33;1.33;;;17.80;78.30;;;;;;5026827;28;20045;-80
2021/09/07 01:44:13;;;;;;;3.78;1.95;;;17.80;78.40;;;;;;5033569;28;20052;-80
2021/09/07 01:46:40;;;;;;;3.25;1.55;;;17.80;78.50;;;;;;5017540;28;20043;-80
2021/09/07 01:49:09;;;;;;;3.30;1.50;;;17.70;78.50;;;;;;5033085;28;20061;-80
2021/09/07 01:51:38;;;;;;;4.25;1.60;;;17.70;78.60;;;;;;5049934;28;20049;-80
2021/09/07 01:54:06;;;;;;;3.22;1.30;;;17.70;78.80;;;;;;5033834;28;20037;-80
2021/09/07 01:56:35;;;;;;;3.95;1.70;;;17.70;78.90;;;;;;5015195;28;20042;-80
2021/09/07 01:59:03;;;;;;;3.63;1.88;;;17.60;78.90;;;;;;5019397;28;20045;-80
2021/09/07 02:01:32;;;;;;;5.30;1.95;;;17.60;78.90;;;;;;5019041;28;20055;-82
2021/09/07 02:03:59;;;;;;;4.70;2.17;;;17.50;78.90;;;;;;5031387;28;20045;-80
2021/09/07 02:06:26;;;;;;;3.50;1.88;;;17.50;79.00;;;;;;5034166;28;20448;-80
2021/09/07 02:08:54;;;;;;;5.13;1.63;;;17.60;79.00;;;;;;5031203;28;20041;-80
2021/09/07 02:11:21;;;;;;;3.22;1.80;;;17.60;79.00;;;;;;5030947;28;20037;-80
2021/09/07 02:13:48;;;;;;;6.07;2.40;;;17.60;79.00;;;;;;5031031;28;20037;-80
2021/09/07 02:16:17;;;;;;;4.20;1.92;;;17.60;78.90;;;;;;5031538;28;20053;-81
2021/09/07 02:18:46;;;;;;;3.47;1.60;;;17.60;78.90;;;;;;5031874;28;20076;-80
2021/09/07 02:21:13;;;;;;;3.83;1.77;;;17.60;78.90;;;;;;5047870;28;20072;-80
2021/09/07 02:23:43;;;;;;;5.47;2.47;;;17.70;79.00;;;;;;5036386;28;20504;-80
2021/09/07 02:26:11;;;;;;;3.67;1.83;;;17.70;79.00;;;;;;5019165;28;20505;-80
2021/09/07 02:28:38;;;;;;;3.33;1.55;;;17.70;79.00;;;;;;5031927;28;20784;-82
2021/09/07 02:31:04;;;;;;;4.95;2.00;;;17.70;79.00;;;;;;5030914;28;20098;-80
2021/09/07 02:33:33;;;;;;;3.40;1.58;;;17.70;79.00;;;;;;5034555;28;20133;-80
2021/09/07 02:36:00;;;;;;;3.08;1.63;;;17.70;79.10;;;;;;5050132;28;20041;-80
2021/09/07 02:38:30;;;;;;;4.35;2.20;;;17.70;79.10;;;;;;5048777;28;20124;-80
2021/09/07 02:40:58;;;;;;;3.88;1.80;;;17.70;79.10;;;;;;5015660;28;20041;-80
2021/09/07 02:43:26;;;;;;;5.55;2.45;;;17.70;79.10;;;;;;5031751;28;20048;-80
2021/09/07 02:45:55;;;;;;;5.15;2.03;;;17.70;79.20;;;;;;5048600;28;20049;-80
2021/09/07 02:48:24;;;;;;;7.10;2.70;;;17.70;79.20;;;;;;5034688;28;20052;-80
2021/09/07 02:50:51;;;;;;;4.30;2.03;;;17.70;79.10;;;;;;4998045;28;20065;-80
2021/09/07 02:53:18;;;;;;;5.03;2.70;;;17.70;79.20;;;;;;5030630;28;20052;-80
2021/09/07 02:55:45;;;;;;;3.50;1.65;;;17.70;79.20;;;;;;5014340;28;20057;-80
2021/09/07 02:58:15;;;;;;;3.88;2.13;;;17.70;79.30;;;;;;5031528;28;20060;-80
2021/09/07 03:00:43;;;;;;;3.95;1.73;;;17.70;79.30;;;;;;5034021;28;20049;-80
2021/09/07 03:03:10;;;;;;;5.63;2.20;;;17.70;79.40;;;;;;5032666;28;20116;-80
2021/09/07 03:05:38;;;;;;;3.58;1.55;;;17.70;79.40;;;;;;5032911;28;20128;-80
2021/09/07 03:08:06;;;;;;;4.00;1.88;;;17.70;79.50;;;;;;5030346;28;20064;-80
2021/09/07 03:10:34;;;;;;;4.70;2.10;;;17.70;79.40;;;;;;5024348;28;20132;-80
2021/09/07 03:13:01;;;;;;;3.65;1.70;;;17.70;79.50;;;;;;5014968;28;20474;-80
2021/09/07 03:15:29;;;;;;;4.60;2.30;;;17.70;79.40;;;;;;5049104;28;20077;-80
2021/09/07 03:17:57;;;;;;;7.57;3.35;;;17.70;80.20;;;;;;5049317;28;20128;-81
2021/09/07 03:20:26;;;;;;;5.50;2.58;;;17.70;79.50;;;;;;5033303;28;20513;-81
2021/09/07 03:22:53;;;;;;;3.83;2.22;;;17.70;79.40;;;;;;5032160;28;20073;-81
2021/09/07 03:25:20;;;;;;;4.93;2.40;;;17.70;79.40;;;;;;5033055;28;20091;-81
2021/09/07 03:27:49;;;;;;;5.13;2.25;;;17.60;79.50;;;;;;5031638;28;20041;-81
2021/09/07 03:30:16;;;;;;;4.65;2.05;;;17.60;79.50;;;;;;5047401;28;20041;-81
2021/09/07 03:32:44;;;;;;;5.22;2.38;;;17.60;79.50;;;;;;5013694;28;20397;-82
2021/09/07 03:35:13;;;;;;;4.32;2.00;;;17.60;79.60;;;;;;5033266;28;20043;-81
2021/09/07 03:37:41;;;;;;;4.22;2.17;;;17.60;79.70;;;;;;5016780;28;20037;-80
2021/09/07 03:40:10;;;;;;;4.80;2.03;;;17.50;79.80;;;;;;5015197;28;20037;-82
2021/09/07 03:42:38;;;;;;;5.18;2.55;;;17.50;79.80;;;;;;5032133;28;20124;-82
2021/09/07 03:45:11;;;;;;;4.43;2.13;;;17.50;79.90;;;;;;5046499;28;20041;-81
2021/09/07 03:47:41;;;;;;;4.45;2.33;;;17.50;80.00;;;;;;5032748;28;20041;-81
2021/09/07 03:50:10;;;;;;;3.28;1.88;;;17.40;80.00;;;;;;5047905;28;20068;-81
2021/09/07 03:52:38;;;;;;;6.30;2.67;;;17.40;80.10;;;;;;5044698;28;20472;-81
2021/09/07 03:55:07;;;;;;;4.47;2.33;;;17.40;80.10;;;;;;5047582;28;20037;-81
2021/09/07 03:57:35;;;;;;;5.57;2.45;;;17.40;80.20;;;;;;5048295;28;20102;-81
2021/09/07 04:00:03;;;;;;;5.53;2.47;;;17.30;80.20;;;;;;5025963;28;20040;-81
2021/09/07 04:02:39;;;;;;;5.57;2.45;;;17.30;80.30;;;;;;5047255;28;20048;-81
2021/09/07 04:05:07;;;;;;;5.57;2.47;;;17.30;80.50;;;;;;5028214;28;21771;-81
2021/09/07 04:07:35;;;;;;;4.90;2.45;;;17.20;80.60;;;;;;5029511;28;20041;-81
2021/09/07 04:10:04;;;;;;;4.45;2.47;;;17.20;80.70;;;;;;5049311;28;20068;-81
2021/09/07 04:12:31;;;;;;;6.80;2.72;;;17.00;80.80;;;;;;5026455;28;20102;-81
2021/09/07 04:14:58;;;;;;;5.47;2.15;;;17.00;80.90;;;;;;5030665;28;20056;-81
2021/09/07 04:17:25;;;;;;;6.22;3.05;;;17.00;80.90;;;;;;5061588;28;20163;-81
2021/09/07 04:19:52;;;;;;;5.70;2.80;;;17.00;81.10;;;;;;5030693;28;20497;-81
2021/09/07 04:22:19;;;;;;;5.68;3.17;;;16.90;81.10;;;;;;5029599;28;20044;-81
2021/09/07 04:24:47;;;;;;;5.43;2.17;;;16.80;81.20;;;;;;5049186;28;20527;-81
2021/09/07 04:27:14;;;;;;;5.03;2.70;;;16.80;81.30;;;;;;5032651;28;20064;-81
2021/09/07 04:29:41;;;;;;;5.47;2.45;;;16.80;81.40;;;;;;5030871;28;20049;-81
2021/09/07 04:32:08;;;;;;;5.03;2.58;;;16.70;81.50;;;;;;5048287;28;20037;-81
2021/09/07 04:34:35;;;;;;;7.50;2.95;;;16.70;81.50;;;;;;5032079;28;20456;-81
2021/09/07 04:37:02;;;;;;;6.78;3.05;;;16.60;81.60;;;;;;5028467;28;20436;-81
2021/09/07 04:39:29;;;;;;;6.22;2.95;;;16.60;81.70;;;;;;5029384;28;20052;-81
2021/09/07 04:41:56;;;;;;;7.07;3.38;;;16.60;81.70;;;;;;5029656;28;20052;-81
2021/09/07 04:44:23;;;;;;;7.03;3.45;;;16.60;81.80;;;;;;5046253;28;20072;-81
2021/09/07 04:46:51;;;;;;;5.45;2.80;;;16.50;81.80;;;;;;5047924;28;20061;-81
2021/09/07 04:49:18;;;;;;;5.57;2.75;;;16.50;81.80;;;;;;5030382;28;20049;-81
2021/09/07 04:51:45;;;;;;;5.03;2.80;;;16.50;81.90;;;;;;5025071;28;20075;-81
2021/09/07 04:54:12;;;;;;;5.65;2.92;;;16.50;81.90;;;;;;5039563;28;21018;-81
2021/09/07 04:56:39;;;;;;;5.53;3.03;;;16.40;81.90;;;;;;5026349;28;20049;-80
2021/09/07 04:59:06;;;;;;;4.03;2.28;;;16.40;82.00;;;;;;5045282;28;20084;-81
2021/09/07 05:01:33;;;;;;;6.07;2.80;;;16.40;82.00;;;;;;5048537;28;20120;-81
2021/09/07 05:04:00;;;;;;;7.18;3.03;;;16.40;82.70;;;;;;5032662;28;20037;-80
2021/09/07 05:06:27;;;;;;;5.32;2.63;;;16.40;82.20;;;;;;5028631;28;20048;-82
2021/09/07 05:08:54;;;;;;;6.13;3.22;;;16.30;82.20;;;;;;5028793;28;20048;-82
2021/09/07 05:11:21;;;;;;;7.20;3.38;;;16.40;82.20;;;;;;5028223;28;20055;-81
2021/09/07 05:13:49;;;;;;;4.40;2.35;;;16.40;82.20;;;;;;5049350;28;20048;-81
2021/09/07 05:16:16;;;;;;;6.80;3.08;;;16.40;82.20;;;;;;5032844;28;20117;-81
2021/09/07 05:18:43;;;;;;;6.88;3.38;;;16.40;82.20;;;;;;5033651;28;20512;-80
2021/09/07 05:21:09;;;;;;;6.00;2.65;;;16.40;82.20;;;;;;5047989;28;20382;-82
2021/09/07 05:23:37;;;;;;;6.50;2.63;;;16.40;82.20;;;;;;5037768;28;20043;-81
2021/09/07 05:26:05;;;;;;;5.90;3.10;;;16.40;82.10;;;;;;5019207;28;21787;-79
2021/09/07 05:28:32;;;;;;;5.47;2.85;;;16.50;82.10;;;;;;5048974;28;20140;-79
2021/09/07 05:31:14;;;;;;;5.07;2.63;;;16.50;82.10;;;;;;5031794;28;20068;-80
2021/09/07 05:33:41;;;;;;;4.50;2.40;;;16.50;82.10;;;;;;5030609;28;20048;-80
2021/09/07 05:36:08;;;;;;;6.72;3.13;;;16.50;82.00;;;;;;5033281;28;20132;-80
2021/09/07 05:38:35;;;;;;;6.05;2.97;;;16.50;82.10;;;;;;5032777;28;20037;-80
2021/09/07 05:41:02;;;;;;;5.93;2.92;;;16.50;82.10;;;;;;5033984;28;20132;-80
2021/09/07 05:43:29;;;;;;;5.82;2.85;;;16.50;82.20;;;;;;5051363;28;20443;-80
2021/09/07 05:45:56;;;;;;;5.95;3.10;;;16.50;82.20;;;;;;5048369;28;20409;-80
2021/09/07 05:48:23;;;;;;;7.28;2.97;;;16.50;82.80;;;;;;5031855;28;20060;-80
2021/09/07 05:50:50;;;;;;;6.32;3.45;;;16.50;82.20;;;;;;5047581;28;20048;-79
2021/09/07 05:53:17;;;;;;;4.43;2.22;;;16.50;82.20;;;;;;5050735;28;20069;-80
2021/09/07 05:55:44;;;;;;;5.18;2.53;;;16.50;82.20;;;;;;5033775;28;20059;-80
2021/09/07 05:58:11;;;;;;;4.00;2.03;;;16.50;82.20;;;;;;5047646;28;20399;-79
2021/09/07 06:00:38;;;;;;;6.07;3.00;;;16.50;82.20;;;;;;5032857;28;20132;-79
2021/09/07 06:03:08;;;;;;;5.22;2.65;;;16.60;82.20;;;;;;5045129;28;20041;-79
2021/09/07 06:05:36;;;;;;;7.85;3.80;;;16.50;82.10;;;;;;5032892;28;20041;-79
2021/09/07 06:08:03;;;;;;;7.72;3.38;;;16.60;82.10;;;;;;5044989;28;20038;-79
2021/09/07 06:10:30;;;;;;;6.10;3.22;;;16.60;82.10;;;;;;5049023;28;20128;-83
2021/09/07 06:13:01;;;;;;;5.75;2.78;;;16.70;82.10;;;;;;5036097;28;20077;-83
2021/09/07 06:15:29;;;;;;;6.45;3.42;;;16.70;82.00;;;;;;5036165;28;20102;-82
2021/09/07 06:17:56;;;;;;;4.75;2.55;;;16.70;82.00;;;;;;5034152;28;20439;-82
2021/09/07 06:20:23;;;;;;;7.38;2.80;;;16.80;82.00;;;;;;5035818;28;20086;-82
2021/09/07 06:22:52;;;;;;;7.00;3.55;;;16.80;81.80;;;;;;5053436;28;20037;-81
2021/09/07 06:25:19;;;;;;;5.28;2.97;;;17.00;81.60;;;;;;5009460;28;20098;-82
2021/09/07 06:27:46;;;;;;;5.60;2.90;;;17.20;81.40;;;;;;5031167;28;20501;-82
2021/09/07 06:30:14;;;;;;;4.45;2.40;;;17.40;81.10;;;;;;5036542;28;20412;-83
2021/09/07 06:32:41;;;;;;;6.20;2.97;;;17.50;80.80;;;;;;5036836;28;20094;-82
2021/09/07 06:35:09;;;;;;;5.82;2.50;;;17.70;80.40;;;;;;5034725;28;20079;-82
2021/09/07 06:37:37;;;;;;;5.50;3.00;;;17.90;80.20;;;;;;5035081;28;20052;-82
2021/09/07 06:40:06;;;;;;;7.35;3.83;;;18.00;79.90;;;;;;5053140;28;20114;-82
2021/09/07 06:42:34;;;;;;;6.50;2.97;;;18.30;79.60;;;;;;5036925;28;20114;-82
2021/09/07 06:45:03;;;;;;;6.15;2.83;;;18.40;79.30;;;;;;5033690;28;20037;-82
2021/09/07 06:47:30;;;;;;;4.93;2.78;;;18.50;79.00;;;;;;5043107;28;20551;-82
2021/09/07 06:50:00;;;;;;;7.25;3.47;;;18.60;78.80;;;;;;5051358;28;20519;-82
2021/09/07 06:52:28;;;;;;;8.13;3.90;;;18.70;78.70;;;;;;5036318;28;20489;-80
2021/09/07 06:54:55;;;;;;;6.13;2.83;;;18.80;78.50;;;;;;5052600;28;20052;-85
2021/09/07 06:57:23;;;;;;;6.43;3.05;;;18.90;78.40;;;;;;5019675;28;20056;-84
2021/09/07 06:59:50;;;;;;;5.85;3.35;;;18.90;78.20;;;;;;5052993;28;20528;-82
2021/09/07 07:02:17;;;;;;;6.97;3.67;;;19.00;78.20;;;;;;5035940;28;20124;-84
2021/09/07 07:04:44;;;;;;;6.72;3.20;;;19.00;78.00;;;;;;5051339;28;20125;-84
2021/09/07 07:07:13;;;;;;;6.75;3.67;;;19.10;77.90;;;;;;5030575;28;20053;-82
2021/09/07 07:09:40;;;;;;;6.45;3.05;;;19.20;77.80;;;;;;5035771;28;20704;-83
2021/09/07 07:12:07;;;;;;;6.60;4.22;;;19.30;77.80;;;;;;5035600;28;20053;-82
2021/09/07 07:14:34;;;;;;;5.28;2.42;;;19.40;77.70;;;;;;4989142;28;20045;-81
2021/09/07 07:17:01;;;;;;;4.88;2.58;;;19.40;77.50;;;;;;5046961;28;20037;-80
2021/09/07 07:19:28;;;;;;;5.18;2.90;;;19.50;77.40;;;;;;5035931;28;20040;-81
2021/09/07 07:21:55;;;;;;;5.50;3.10;;;19.60;77.20;;;;;;5015225;28;20062;-81
2021/09/07 07:24:22;;;;;;;5.43;2.88;;;19.70;77.10;;;;;;5030321;28;20477;-81
2021/09/07 07:27:02;;;;;;;5.97;2.80;;;19.70;77.00;;;;;;5020626;28;20132;-82
2021/09/07 07:29:29;;;;;;;5.75;2.88;;;19.80;76.90;;;;;;5045522;28;20451;-81
2021/09/07 07:31:57;;;;;;;6.43;3.58;;;19.90;76.70;;;;;;5032341;28;20037;-82
2021/09/07 07:34:24;;;;;;;6.43;3.40;;;19.90;76.60;;;;;;5029015;28;20037;-80
2021/09/07 07:36:54;;;;;;;6.63;3.75;;;20.00;76.50;;;;;;5035044;28;20040;-80
2021/09/07 07:39:21;;;;;;;6.47;3.70;;;20.10;76.40;;;;;;5052163;28;20041;-81
2021/09/07 07:41:48;;;;;;;6.22;3.60;;;20.10;76.20;;;;;;5041287;28;20424;-80
2021/09/07 07:44:16;;;;;;;4.88;2.90;;;20.20;76.10;;;;;;5015133;28;20088;-80
2021/09/07 07:46:43;;;;;;;5.40;2.70;;;20.30;76.00;;;;;;5051640;28;20129;-79
2021/09/07 07:49:10;;;;;;;6.57;3.38;;;20.30;75.90;;;;;;5031589;28;20068;-78
2021/09/07 07:51:37;;;;;;;5.78;3.20;;;20.50;75.70;;;;;;5030539;28;20245;-78
2021/09/07 07:54:07;;;;;;;9.60;5.25;;;20.60;75.50;;;;;;5051167;28;20052;-79
2021/09/07 07:56:37;;;;;;;7.50;4.75;;;20.80;75.20;;;;;;5050526;28;20053;-79
2021/09/07 07:59:05;;;;;;;6.38;3.92;;;21.00;75.40;;;;;;5051361;28;20080;-79
2021/09/07 08:01:32;;;;;;;6.55;3.70;;;21.20;74.60;;;;;;5039127;28;20076;-79
2021/09/07 08:04:00;;;;;;;5.50;3.17;;;21.40;74.40;;;;;;5037413;28;20052;-79
2021/09/07 08:06:27;;;;;;;8.27;3.63;;;21.50;74.10;;;;;;5026939;28;20045;-79
2021/09/07 08:08:55;;;;;;;6.07;3.28;;;21.60;73.80;;;;;;5018436;28;20483;-79
2021/09/07 08:11:22;;;;;;;6.38;3.42;;;21.80;73.70;;;;;;5050850;28;20052;-80
2021/09/07 08:13:51;;;;;;;7.00;3.42;;;21.90;73.40;;;;;;5050272;28;20052;-80
2021/09/07 08:16:19;;;;;;;8.10;3.72;;;22.00;73.30;;;;;;5052503;28;20441;-83
2021/09/07 08:18:49;;;;;;;7.80;4.00;;;22.10;73.20;;;;;;5034599;28;20115;-80
2021/09/07 08:21:16;;;;;;;5.88;3.17;;;22.20;73.10;;;;;;5034410;28;20042;-80
2021/09/07 08:23:43;;;;;;;5.43;2.90;;;22.30;73.50;;;;;;5051023;28;20044;-79
2021/09/07 08:26:10;;;;;;;4.55;2.60;;;22.30;72.70;;;;;;5050681;28;20401;-79
2021/09/07 08:28:37;;;;;;;6.00;3.95;;;22.30;72.50;;;;;;5050880;28;20044;-79
2021/09/07 08:31:04;;;;;;;6.45;3.33;;;22.40;72.40;;;;;;5018383;28;20451;-80
2021/09/07 08:33:31;;;;;;;5.65;3.05;;;22.40;72.40;;;;;;5044990;28;20049;-80
2021/09/07 08:35:58;;;;;;;5.53;3.10;;;22.40;72.20;;;;;;5038297;28;20528;-80
2021/09/07 08:38:26;;;;;;;4.82;2.63;;;22.50;72.20;;;;;;5048065;28;20041;-81
2021/09/07 08:40:53;;;;;;;5.30;3.28;;;22.50;72.70;;;;;;5032570;28;20439;-77
2021/09/07 08:43:20;;;;;;;7.80;3.50;;;22.60;71.90;;;;;;5033424;28;20076;-77
2021/09/07 08:45:55;;;;;;;6.15;3.10;;;22.60;72.40;;;;;;5035028;28;20037;-82
2021/09/07 08:48:25;;;;;;;5.28;2.90;;;22.70;71.50;;;;;;5052704;28;20060;-76
2021/09/07 08:50:54;;;;;;;7.53;2.85;;;22.70;71.40;;;;;;5036110;28;20131;-77
2021/09/07 08:53:28;;;;;;;5.45;2.75;;;22.80;71.30;;;;;;5055660;28;20075;-84
2021/09/07 08:55:56;;;;;;;5.13;3.08;;;22.80;71.10;;;;;;5054956;28;20057;-83
2021/09/07 08:58:23;;;;;;;8.18;3.92;;;22.90;71.00;;;;;;5038297;28;20160;-83
2021/09/07 09:00:50;;;;;;;7.07;4.20;;;22.90;70.90;;;;;;5022076;28;20489;-83
2021/09/07 09:03:18;;;;;;;5.35;2.95;;;22.90;70.70;;;;;;5038209;28;20041;-82
2021/09/07 09:05:48;;;;;;;5.63;3.08;;;22.90;70.70;;;;;;5054035;28;20049;-81
2021/09/07 09:08:17;;;;;;;5.38;3.00;;;22.90;70.60;;;;;;5055148;28;20049;-82
2021/09/07 09:10:46;;;;;;;5.03;2.60;;;22.90;70.50;;;;;;5053697;28;20076;-81
2021/09/07 09:13:15;;;;;;;5.88;2.80;;;23.00;70.60;;;;;;5037855;28;20132;-80
2021/09/07 09:16:02;;;;;;;7.28;3.42;;;22.90;70.40;;;;;;5051810;28;20131;-80
2021/09/07 09:18:35;;;;;;;5.93;3.35;;;22.90;70.30;;;;;;5035728;28;20069;-81
2021/09/07 09:21:22;;;;;;;;;;;22.80;70.50;;;;;;5032177;28;20478;-80
2021/09/07 09:24:09;;;;;;;6.82;3.22;;;22.80;70.80;;;;;;5037750;28;20288;-81
2021/09/07 09:26:51;;;;;;;6.40;3.53;;;22.80;70.70;;;;;;5053758;28;20052;-80
2021/09/07 09:29:38;;;;;;;7.40;3.33;;;22.80;70.60;;;;;;5053860;28;20512;-81
2021/09/07 09:32:10;;;;;;;7.82;3.42;;;22.80;70.40;;;;;;5055580;28;20508;-81
2021/09/07 09:34:40;;;;;;;6.38;3.65;;;22.80;70.30;;;;;;5052856;28;20045;-80
2021/09/07 09:37:12;;;;;;;7.72;3.78;;;22.80;70.20;;;;;;5031336;28;20069;-82
2021/09/07 09:39:40;;;;;;;;;;;22.90;70.20;;;;;;5031263;28;20033;-80
2021/09/07 09:42:10;;;;;;;6.28;3.42;;;22.80;70.30;;;;;;5040672;28;19925;-81
2021/09/07 09:44:37;;;;;;;4.65;3.00;;;22.90;70.30;;;;;;5048700;28;20494;-81
2021/09/07 09:47:05;;;;;;;4.28;2.60;;;23.00;70.10;;;;;;5047134;28;20053;-81
2021/09/07 09:49:33;;;;;;;5.60;3.00;;;23.00;70.30;;;;;;5042786;28;20112;-81
2021/09/07 09:52:01;;;;;;;5.38;2.67;;;23.00;69.70;;;;;;5045698;28;20067;-81
2021/09/07 09:54:30;;;;;;;4.88;3.08;;;23.10;69.60;;;;;;5046678;28;20088;-81
2021/09/07 09:56:58;;;;;;;5.20;3.03;;;23.10;69.50;;;;;;5049374;28;20111;-80
2021/09/07 09:59:29;;;;;;;5.18;2.75;;;23.10;69.40;;;;;;5053198;28;20068;-88
2021/09/07 10:01:57;;;;;;;4.78;2.70;;;23.20;69.30;;;;;;5020002;28;20465;-79
2021/09/07 10:04:27;;;;;;;5.93;3.28;;;23.20;69.20;;;;;;5036237;28;20390;-84
2021/09/07 10:06:54;;;;;;;7.63;4.18;;;23.20;69.00;;;;;;5050554;28;20045;-76
2021/09/07 10:09:23;;;;;;;5.55;3.15;;;23.30;68.80;;;;;;5035678;28;20049;-77
2021/09/07 10:11:59;;;;;;;7.20;4.07;;;23.40;68.60;;;;;;5051406;28;20098;-77
2021/09/07 10:14:33;;;;;;;5.82;3.05;;;23.40;68.30;;;;;;5047486;28;20573;-77
2021/09/07 10:17:31;;;;;;;4.82;2.63;;;23.40;68.20;;;;;;5032004;28;20405;-77
2021/09/07 10:23:04;;;;;;;5.25;3.25;;;23.70;67.70;;;;;;5058046;28;20049;-89
2021/09/07 10:25:55;;;;;;;4.32;2.83;;;23.80;67.50;;;;;;5044275;28;20037;-86
2021/09/07 10:28:28;;;;;;;4.70;3.08;;;23.80;67.30;;;;;;5051607;28;20102;-89
2021/09/07 10:30:58;;;;;;;6.22;3.78;;;23.90;67.30;;;;;;5038010;28;20045;-86
2021/09/07 10:33:38;;;;;;;7.40;4.68;;;23.90;67.10;;;;;;5052604;28;20523;-87
2021/09/07 10:36:18;;;;;;;7.28;4.28;;;24.00;66.40;;;;;;5051679;28;20045;-89
2021/09/07 10:38:50;;;;;;;5.95;3.25;;;24.00;66.50;;;;;;5052323;28;20045;-81
2021/09/07 10:41:29;;;;;;;6.13;2.95;;;24.10;66.60;;;;;;5036075;28;20049;-81
2021/09/07 10:43:58;;;;;;;6.32;4.13;;;24.10;66.40;;;;;;5068159;28;20036;-80
2021/09/07 10:46:49;;;;;;;7.07;4.72;;;24.10;66.00;;;;;;5034131;28;20129;-77
2021/09/07 10:49:41;;;;;;;7.40;3.80;;;24.20;65.80;;;;;;5050464;28;20186;-77
2021/09/07 10:52:27;;;;;;;6.80;3.40;;;24.20;65.70;;;;;;5045138;28;20040;-77
2021/09/07 10:57:56;;;;;;;4.65;2.88;;;24.40;65.70;;;;;;5044408;28;20114;-76
2021/09/07 11:00:23;;;;;;;4.03;2.25;;;24.40;65.40;;;;;;5045637;28;20037;-76
2021/09/07 11:02:52;;;;;;;4.72;2.70;;;24.40;65.40;;;;;;5046058;28;20448;-76
2021/09/07 11:05:25;;;;;;;3.55;2.35;;;24.40;65.30;;;;;;5044971;28;20457;-76
2021/09/07 11:08:34;;;;;;;5.55;3.13;;;24.40;65.10;;;;;;5045106;28;20040;-76
2021/09/07 11:11:22;;;;;;;4.25;2.55;;;24.40;65.00;;;;;;5047788;28;20037;-77
2021/09/07 11:13:49;;;;;;;4.68;2.63;;;24.50;65.20;;;;;;5047410;28;20465;-77
2021/09/07 11:16:16;;;;;;;4.55;2.78;;;24.40;65.20;;;;;;5049380;28;20068;-77
2021/09/07 11:18:47;;;;;;;5.50;3.00;;;24.50;65.10;;;;;;5046735;28;20048;-77
2021/09/07 11:21:14;;;;;;;6.03;2.30;;;24.50;65.00;;;;;;5026266;28;20059;-76
2021/09/07 11:23:41;;;;;;;4.70;2.58;;;24.70;64.80;;;;;;5042339;28;20068;-77
2021/09/07 11:26:15;;;;;;;4.95;3.00;;;24.90;64.10;;;;;;5044180;28;20140;-77
2021/09/07 11:28:48;;;;;;;4.38;2.75;;;25.00;63.70;;;;;;5031250;28;20060;-76
2021/09/07 11:31:15;;;;;;;8.90;4.97;;;25.00;63.60;;;;;;5040357;28;20053;-76
2021/09/07 11:33:44;;;;;;;6.88;4.25;;;25.00;63.10;;;;;;5040262;28;20048;-75
2021/09/07 11:36:13;;;;;;;5.85;3.80;;;24.90;63.30;;;;;;5046082;28;20048;-76
2021/09/07 11:38:46;;;;;;;5.85;3.97;;;24.80;63.40;;;;;;5039329;28;20080;-75
2021/09/07 11:41:16;;;;;;;5.95;4.25;;;24.90;63.50;;;;;;5037126;28;20046;-81
2021/09/07 11:43:50;;;;;;;7.07;4.75;;;24.80;63.50;;;;;;5050091;28;20092;-78
2021/09/07 11:46:20;;;;;;;6.30;3.88;;;24.80;63.30;;;;;;5062767;28;20393;-77
2021/09/07 11:48:53;;;;;;;6.55;3.28;;;24.70;63.50;;;;;;5047499;28;20059;-78
2021/09/07 11:51:28;;;;;;;5.60;3.03;;;24.80;63.60;;;;;;5049769;28;20115;-77
2021/09/07 11:54:07;;;;;;;5.60;3.08;;;24.70;63.60;;;;;;5032527;28;20111;-78
2021/09/07 11:56:39;;;;;;;5.50;3.60;;;24.70;63.60;;;;;;5049525;28;20412;-77
2021/09/07 11:59:17;;;;;;;;;;;24.70;63.60;;;;;;5046367;28;20481;-77
2021/09/07 12:01:51;;;;;;;3.65;2.15;;;24.70;63.90;;;;;;5048832;28;20278;-77
2021/09/07 12:04:21;;;;;;;6.20;3.08;;;24.70;63.80;;;;;;5031772;28;20106;-77
2021/09/07 12:06:51;;;;;;;4.53;2.28;;;24.80;63.60;;;;;;5030834;28;20119;-77
2021/09/07 12:09:32;;;;;;;4.53;2.60;;;24.80;63.50;;;;;;5047796;28;20083;-78
2021/09/07 12:12:08;;;;;;;4.82;2.90;;;24.80;64.00;;;;;;5049313;28;20114;-77
2021/09/07 12:14:36;;;;;;;3.90;2.50;;;24.90;63.30;;;;;;5022955;28;20492;-76
2021/09/07 12:17:04;;;;;;;4.00;1.83;;;24.90;63.30;;;;;;5046243;28;20825;-76
2021/09/07 12:19:48;;;;;;;3.72;1.88;;;24.90;63.30;;;;;;5047649;28;20033;-75
2021/09/07 12:22:40;;;;;;;3.50;1.90;;;24.90;63.30;;;;;;5046792;28;20053;-75
2021/09/07 12:25:12;;;;;;;3.25;2.03;;;24.90;63.70;;;;;;5045768;28;20090;-75
2021/09/07 12:27:49;;;;;;;3.38;1.80;;;24.90;63.10;;;;;;5047899;28;20048;-75
2021/09/07 12:30:28;;;;;;;3.95;2.40;;;24.90;63.60;;;;;;5047860;28;20041;-75
2021/09/07 12:33:14;;;;;;;3.95;2.15;;;24.90;62.80;;;;;;5045084;28;20068;-75
2021/09/07 12:35:43;;;;;;;3.80;2.20;;;24.90;62.90;;;;;;5041700;28;20041;-75
2021/09/07 12:38:16;;;;;;;4.05;2.15;;;24.90;62.80;;;;;;5047752;28;20049;-76
2021/09/07 12:40:45;;;;;;;5.43;2.70;;;24.90;62.60;;;;;;5049420;28;20045;-76
2021/09/07 12:43:18;;;;;;;5.85;2.33;;;25.00;62.50;;;;;;5047153;28;20057;-76
2021/09/07 12:45:50;;;;;;;4.07;2.20;;;25.00;62.50;;;;;;5047698;28;20064;-76
2021/09/07 12:48:17;;;;;;;;;;;25.10;62.40;;;;;;5062033;28;20573;-76
2021/09/07 12:50:46;;;;;;;5.30;2.40;;;25.00;62.50;;;;;;5046760;28;20360;-76
2021/09/07 12:53:16;;;;;;;3.72;2.25;;;25.00;62.50;;;;;;5048065;28;20044;-76
2021/09/07 12:56:01;;;;;;;3.72;2.10;;;25.10;62.40;;;;;;5047436;28;20405;-75
2021/09/07 12:58:29;;;;;;;3.25;1.90;;;25.10;62.20;;;;;;5030338;28;20037;-75
2021/09/07 13:00:59;;;;;;;3.95;2.05;;;25.10;62.80;;;;;;5030930;28;20073;-75
2021/09/07 13:03:27;;;;;;;3.05;1.67;;;25.20;62.10;;;;;;5046431;28;20044;-76
2021/09/07 13:05:54;;;;;;;3.15;1.98;;;25.20;62.10;;;;;;5043426;28;20041;-76